createdAt,value
2023-04-12T00:00:21.865Z,3
2023-04-12T00:02:48.574Z,3.4
2023-04-12T00:05:15.295Z,3
2023-04-12T00:07:41.871Z,2.8
2023-04-12T00:10:08.537Z,2.8
2023-04-12T00:12:35.232Z,3.8
2023-04-12T00:15:01.970Z,2.9
2023-04-12T00:17:27.143Z,2.7
2023-04-12T00:19:53.843Z,2.8
2023-04-12T00:22:20.529Z,2.9
2023-04-12T00:24:47.204Z,3.3
2023-04-12T00:27:13.921Z,3.7
2023-04-12T00:29:40.593Z,3.6
2023-04-12T00:32:07.255Z,3.1
2023-04-12T00:34:34.040Z,3.9
2023-04-12T00:37:00.677Z,3.7
2023-04-12T00:39:27.317Z,2.8
2023-04-12T00:41:54.032Z,3.4
2023-04-12T00:44:20.728Z,3.5
2023-04-12T00:46:47.367Z,3.1
2023-04-12T00:49:12.655Z,4
2023-04-12T00:51:39.298Z,4.1
2023-04-12T00:54:05.948Z,3.9
2023-04-12T00:56:32.643Z,3.8
2023-04-12T00:58:59.327Z,3.9
2023-04-12T01:01:26.060Z,4
2023-04-12T01:03:52.859Z,3.2
2023-04-12T01:06:19.381Z,3.7
2023-04-12T01:08:46.089Z,3.5
2023-04-12T01:11:12.806Z,3.7
2023-04-12T01:13:39.468Z,4.1
2023-04-12T01:16:06.113Z,3.9
2023-04-12T01:18:32.814Z,4.1
2023-04-12T01:20:58.024Z,3.8
2023-04-12T01:23:24.700Z,4.1
2023-04-12T01:25:51.390Z,4.5
2023-04-12T01:28:18.091Z,3.7
2023-04-12T01:30:44.749Z,3.7
2023-04-12T01:33:11.451Z,3.7
2023-04-12T01:35:38.133Z,3.4
2023-04-12T01:38:04.824Z,4.3
2023-04-12T01:40:31.547Z,4.1
2023-04-12T01:42:58.201Z,5.4
2023-04-12T01:45:24.937Z,4.6
2023-04-12T01:47:51.630Z,5
2023-04-12T01:50:18.268Z,4.5
2023-04-12T01:52:43.460Z,4.7
2023-04-12T01:55:10.146Z,4.5
2023-04-12T01:57:36.894Z,4.8
2023-04-12T02:00:03.551Z,4.6
2023-04-12T02:02:30.194Z,4.1
2023-04-12T02:04:57.006Z,5.1
2023-04-12T02:07:23.585Z,5
2023-04-12T02:09:50.321Z,5.4
2023-04-12T02:12:16.984Z,4.1
2023-04-12T02:14:43.667Z,4.9
2023-04-12T02:17:10.324Z,4.7
2023-04-12T02:19:36.982Z,5
2023-04-12T02:22:03.687Z,4.9
2023-04-12T02:24:29.083Z,5.4
2023-04-12T02:26:55.577Z,4
2023-04-12T02:29:22.270Z,5.1
2023-04-12T02:31:48.948Z,4.8
2023-04-12T02:34:15.653Z,5.3
2023-04-12T02:36:42.403Z,4.7
2023-04-12T02:39:09.004Z,4.3
2023-04-12T02:41:35.709Z,4.7
2023-04-12T02:44:02.416Z,4.7
2023-04-12T02:46:29.054Z,4.5
2023-04-12T02:48:55.746Z,4.6
2023-04-12T02:51:22.431Z,4
2023-04-12T02:53:49.129Z,4.3
2023-04-12T02:56:14.352Z,4.8
2023-04-12T02:58:41.020Z,4.5
2023-04-12T03:01:07.715Z,4.4
2023-04-12T03:03:34.398Z,4.4
2023-04-12T03:06:01.079Z,4.2
2023-04-12T03:08:27.746Z,4.1
2023-04-12T03:10:54.434Z,4.6
2023-04-12T03:13:21.128Z,4.1
2023-04-12T03:15:47.812Z,5.4
2023-04-12T03:18:14.511Z,4.6
2023-04-12T03:20:41.186Z,4.4
2023-04-12T03:23:07.865Z,4.1
2023-04-12T03:25:34.552Z,4.9
2023-04-12T03:27:59.851Z,4.7
2023-04-12T03:30:26.534Z,3.7
2023-04-12T03:32:53.199Z,4.2
2023-04-12T03:35:19.846Z,4.1
2023-04-12T03:37:46.626Z,4.7
2023-04-12T03:40:13.256Z,4.1
2023-04-12T03:42:39.883Z,4.7
2023-04-12T03:45:06.558Z,4.5
2023-04-12T03:47:33.252Z,4.7
2023-04-12T03:49:59.924Z,4.7
2023-04-12T03:52:26.614Z,4.2
2023-04-12T03:54:53.390Z,4.5
2023-04-12T03:57:19.996Z,4.3
2023-04-12T03:59:45.242Z,4.1
2023-04-12T04:02:11.907Z,3.9
2023-04-12T04:04:38.598Z,4.1
2023-04-12T04:07:05.282Z,3.8
2023-04-12T04:09:31.959Z,3.8
2023-04-12T04:11:58.640Z,3.7
2023-04-12T04:14:25.363Z,4.7
2023-04-12T04:16:52.017Z,3.6
2023-04-12T04:19:18.809Z,3.9
2023-04-12T04:21:45.440Z,4.8
2023-04-12T04:24:12.117Z,3.5
2023-04-12T04:26:38.748Z,4.4
2023-04-12T04:29:05.434Z,4.3
2023-04-12T04:31:30.708Z,3.9
2023-04-12T04:33:57.436Z,4.5
2023-04-12T04:36:24.053Z,4.6
2023-04-12T04:38:50.769Z,4.5
2023-04-12T04:41:17.408Z,4.5
2023-04-12T04:43:44.091Z,4.9
2023-04-12T04:46:10.783Z,5.1
2023-04-12T04:48:37.484Z,4.8
2023-04-12T04:51:04.161Z,4.7
2023-04-12T04:53:30.843Z,5.3
2023-04-12T04:55:57.532Z,5.5
2023-04-12T04:58:24.191Z,5.6
2023-04-12T05:00:50.928Z,5
2023-04-12T05:03:16.177Z,6.2
2023-04-12T05:05:42.804Z,6.5
2023-04-12T05:08:09.474Z,6.1
2023-04-12T05:10:36.180Z,6.4
2023-04-12T05:13:02.843Z,5.9
2023-04-12T05:15:29.537Z,5.2
2023-04-12T05:17:56.225Z,5.4
2023-04-12T05:20:22.888Z,5.7
2023-04-12T05:22:49.587Z,6.4
2023-04-12T05:25:16.279Z,6.1
2023-04-12T05:27:42.953Z,7.2
2023-04-12T05:30:09.630Z,7.1
2023-04-12T05:32:36.327Z,7.1
2023-04-12T05:35:03.017Z,7.4
2023-04-12T05:37:29.692Z,6.4
2023-04-12T05:39:56.440Z,6.6
2023-04-12T05:42:21.640Z,6.8
2023-04-12T05:44:48.297Z,6.9
2023-04-12T05:47:15.046Z,6.7
2023-04-12T05:49:41.736Z,6.2
2023-04-12T05:52:08.355Z,6.7
2023-04-12T05:54:35.081Z,5.7
2023-04-12T05:57:01.753Z,6.2
2023-04-12T05:59:28.488Z,6.3
2023-04-12T06:01:55.103Z,6.4
2023-04-12T06:04:21.796Z,6.1
2023-04-12T06:06:48.456Z,5.7
2023-04-12T06:09:15.300Z,5.7
2023-04-12T06:11:41.911Z,5.2
2023-04-12T06:14:07.084Z,6.1
2023-04-12T06:16:33.795Z,6.2
2023-04-12T06:19:00.586Z,5.6
2023-04-12T06:21:27.130Z,5.2
2023-04-12T06:23:53.905Z,5.3
2023-04-12T06:26:20.499Z,5.8
2023-04-12T06:28:47.204Z,4.3
2023-04-12T06:31:13.867Z,3.9
2023-04-12T06:33:40.559Z,4.7
2023-04-12T06:36:07.248Z,4.3
2023-04-12T06:38:33.912Z,4.6
2023-04-12T06:41:00.597Z,5
2023-04-12T06:43:27.356Z,5.4
2023-04-12T06:45:52.549Z,4.9
2023-04-12T06:48:19.318Z,4.5
2023-04-12T06:50:45.950Z,4.7
2023-04-12T06:53:12.575Z,4.5
2023-04-12T06:55:39.243Z,4.5
2023-04-12T06:58:06.054Z,4.7
2023-04-12T07:00:32.755Z,4
2023-04-12T07:02:59.456Z,4.3
2023-04-12T07:05:26.015Z,4.2
2023-04-12T07:07:52.695Z,4.1
2023-04-12T07:10:19.362Z,4.4
2023-04-12T07:12:46.038Z,3.8
2023-04-12T07:15:12.778Z,4.6
2023-04-12T07:17:37.951Z,4.6
2023-04-12T07:20:04.719Z,4.6
2023-04-12T07:22:31.558Z,4.4
2023-04-12T07:24:58.107Z,4.6
2023-04-12T07:27:24.697Z,4.4
2023-04-12T07:29:51.388Z,4.4
2023-04-12T07:32:18.087Z,4.1
2023-04-12T07:34:44.746Z,4.2
2023-04-12T07:37:11.447Z,3.7
2023-04-12T07:39:38.123Z,3.7
2023-04-12T07:42:03.353Z,5.2
2023-04-12T07:44:30.054Z,3.4
2023-04-12T07:46:56.726Z,4.6
2023-04-12T07:49:23.411Z,3.8
2023-04-12T07:51:50.112Z,4.1
2023-04-12T07:54:16.880Z,4.5
2023-04-12T07:56:43.481Z,5
2023-04-12T07:59:10.196Z,3.7
2023-04-12T08:01:36.897Z,3.7
2023-04-12T08:04:03.681Z,3.6
2023-04-12T08:06:30.188Z,3.2
2023-04-12T08:08:56.893Z,3.3
2023-04-12T08:11:23.593Z,3.1
2023-04-12T08:13:50.427Z,3
2023-04-12T08:16:15.482Z,3.1
2023-04-12T08:18:42.244Z,3
2023-04-12T08:21:09.028Z,3.4
2023-04-12T08:23:35.587Z,3.5
2023-04-12T08:26:02.235Z,3.2
2023-04-12T08:28:28.914Z,2.5
2023-04-12T08:30:55.584Z,2.7
2023-04-12T08:33:22.289Z,2.6
2023-04-12T08:35:48.963Z,3.3
2023-04-12T08:38:15.656Z,2.9
2023-04-12T08:40:42.435Z,3.4
2023-04-12T08:43:09.120Z,4.2
2023-04-12T08:45:35.829Z,3.3
2023-04-12T08:48:00.919Z,3.5
2023-04-12T08:50:27.653Z,2.6
2023-04-12T08:52:54.390Z,2.1
2023-04-12T08:55:21.117Z,3
2023-04-12T08:57:47.662Z,2.5
2023-04-12T09:00:14.340Z,3
2023-04-12T09:02:41.079Z,2.8
2023-04-12T09:05:07.727Z,2.5
2023-04-12T09:07:34.398Z,2.5
2023-04-12T09:12:27.820Z,3.1
2023-04-12T09:14:54.568Z,2.9
2023-04-12T09:17:21.146Z,2.6
2023-04-12T09:19:46.546Z,3.4
2023-04-12T09:22:13.051Z,3.9
2023-04-12T09:24:39.796Z,3.3
2023-04-12T09:27:06.456Z,3
2023-04-12T09:29:33.277Z,3.3
2023-04-12T09:31:59.796Z,3.3
2023-04-12T09:34:26.584Z,2.5
2023-04-12T09:39:20.090Z,2.9
2023-04-12T09:41:46.525Z,2.9
2023-04-12T09:44:13.298Z,3.1
2023-04-12T09:46:39.909Z,2.4
2023-04-12T09:49:06.587Z,3.3
2023-04-12T09:51:31.882Z,3.3
2023-04-12T09:53:58.495Z,2.7
2023-04-12T09:56:25.203Z,2.4
2023-04-12T09:58:51.993Z,2.3
2023-04-12T10:01:18.626Z,2.4
2023-04-12T10:03:45.262Z,2.4
2023-04-12T10:06:12.104Z,2.2
2023-04-12T10:08:38.666Z,2.6
2023-04-12T10:11:05.297Z,3
2023-04-12T10:13:32.021Z,2.6
2023-04-12T10:15:58.662Z,2.8
2023-04-12T10:18:25.457Z,2
2023-04-12T10:20:52.095Z,2.7
2023-04-12T10:23:17.284Z,2.8
2023-04-12T10:25:43.930Z,2.6
2023-04-12T10:28:10.634Z,2.6
2023-04-12T10:30:37.376Z,2.1
2023-04-12T10:33:03.998Z,3
2023-04-12T10:35:30.691Z,3.8
2023-04-12T10:37:57.359Z,3
2023-04-12T10:40:24.041Z,3.1
2023-04-12T10:42:50.728Z,3.8
2023-04-12T10:45:17.416Z,3.3
2023-04-12T10:47:44.094Z,3.2
2023-04-12T10:50:10.784Z,4.1
2023-04-12T10:52:37.471Z,3.4
2023-04-12T10:55:02.708Z,4.5
2023-04-12T10:57:29.424Z,3
2023-04-12T10:59:56.058Z,3.1
2023-04-12T11:02:22.739Z,2.6
2023-04-12T11:04:49.431Z,2.9
2023-04-12T11:09:42.895Z,3.1
2023-04-12T11:12:09.550Z,2.9
2023-04-12T11:14:36.184Z,2.6
2023-04-12T11:17:02.839Z,2.6
2023-04-12T11:19:29.539Z,2.7
2023-04-12T11:21:56.219Z,3.3
2023-04-12T11:24:22.893Z,3.5
2023-04-12T11:26:49.608Z,3.5
2023-04-12T11:29:14.801Z,3.1
2023-04-12T11:31:41.480Z,3
2023-04-12T11:34:08.165Z,1.8
2023-04-12T11:36:34.845Z,1.4
2023-04-12T11:39:01.532Z,1.2
2023-04-12T11:41:28.223Z,1.1
2023-04-12T11:43:54.934Z,1.8
2023-04-12T11:46:21.594Z,1.2
2023-04-12T11:48:48.381Z,1.2
2023-04-12T11:51:14.999Z,1.1
2023-04-12T11:53:41.711Z,0.8
2023-04-12T11:56:08.393Z,1
2023-04-12T11:58:35.012Z,1
2023-04-12T12:01:01.715Z,0.9
2023-04-12T12:03:28.400Z,1
2023-04-12T12:05:53.685Z,1
2023-04-12T12:08:20.327Z,1.1
2023-04-12T12:10:46.985Z,0.9
2023-04-12T12:13:13.666Z,0.7
2023-04-12T12:15:40.517Z,0.7
2023-04-12T12:18:07.037Z,0.9
2023-04-12T12:20:33.729Z,0.9
2023-04-12T12:23:00.573Z,0.8
2023-04-12T12:25:27.219Z,1.1
2023-04-12T12:27:53.814Z,1
2023-04-12T12:30:20.472Z,0.8
2023-04-12T12:32:47.137Z,1.1
2023-04-12T12:35:13.884Z,0.9
2023-04-12T12:37:39.059Z,0.8
2023-04-12T12:40:05.730Z,0.7
2023-04-12T12:42:32.447Z,0.7
2023-04-12T12:44:59.230Z,0.7
2023-04-12T12:47:25.781Z,0.6
2023-04-12T12:49:52.498Z,0.7
2023-04-12T12:52:19.153Z,0.5
2023-04-12T12:54:45.835Z,0.7
2023-04-12T12:57:12.662Z,0.8
2023-04-12T12:59:39.258Z,0.5
2023-04-12T13:02:06.000Z,0.5
2023-04-12T13:04:32.583Z,0.5
2023-04-12T13:06:59.262Z,0.6
2023-04-12T13:09:26.103Z,0.6
2023-04-12T13:11:51.165Z,0.8
2023-04-12T13:14:17.890Z,0.8
2023-04-12T13:16:44.535Z,0.6
2023-04-12T13:19:11.400Z,0.9
2023-04-12T13:21:37.964Z,0.6
2023-04-12T13:24:04.578Z,0.8
2023-04-12T13:26:31.286Z,0.9
2023-04-12T13:28:58.136Z,0.8
2023-04-12T13:31:24.635Z,0.8
2023-04-12T13:33:51.322Z,0.7
2023-04-12T13:38:44.813Z,0.9
2023-04-12T13:41:11.410Z,0.8
2023-04-12T13:43:36.640Z,0.8
2023-04-12T13:46:03.281Z,0.7
2023-04-12T13:48:29.981Z,0.6
2023-04-12T13:50:56.651Z,0.7
2023-04-12T13:53:23.352Z,0.7
2023-04-12T13:55:50.024Z,0.5
2023-04-12T13:58:16.713Z,0.7
2023-04-12T14:00:43.467Z,0.7
2023-04-12T14:03:10.077Z,0.8
2023-04-12T14:05:36.869Z,0.6
2023-04-12T14:08:03.452Z,0.6
2023-04-12T14:10:30.123Z,0.6
2023-04-12T14:12:56.820Z,0.7
2023-04-12T14:15:22.133Z,0.6
2023-04-12T14:17:48.737Z,0.5
2023-04-12T14:20:15.505Z,0.6
2023-04-12T14:22:42.077Z,0.8
2023-04-12T14:25:08.777Z,0.7
2023-04-12T14:27:35.556Z,0.5
2023-04-12T14:30:02.139Z,0.8
2023-04-12T14:32:28.958Z,1.6
2023-04-12T14:34:55.504Z,0.9
2023-04-12T14:37:22.195Z,0.6
2023-04-12T14:39:49.027Z,0.7
2023-04-12T14:42:15.556Z,0.5
2023-04-12T14:44:42.368Z,0.7
2023-04-12T14:47:08.993Z,0.6
2023-04-12T14:49:34.227Z,0.7
2023-04-12T14:52:00.864Z,0.4
2023-04-12T14:54:27.710Z,0.5
2023-04-12T14:56:54.344Z,0.4
2023-04-12T14:59:20.883Z,0.6
2023-04-12T15:01:47.581Z,0.7
2023-04-12T15:04:14.297Z,0.7
2023-04-12T15:06:41.079Z,1
2023-04-12T15:09:07.676Z,0.6
2023-04-12T15:11:34.369Z,0.5
2023-04-12T15:14:01.156Z,0.5
2023-04-12T15:16:27.767Z,0.7
2023-04-12T15:18:54.368Z,0.7
2023-04-12T15:21:21.086Z,0.7
2023-04-12T15:23:46.268Z,0.7
2023-04-12T15:26:12.952Z,0.7
2023-04-12T15:28:39.684Z,0.8
2023-04-12T15:31:06.323Z,0.8
2023-04-12T15:33:33.016Z,0.6
2023-04-12T15:35:59.748Z,0.7
2023-04-12T15:38:26.400Z,0.9
2023-04-12T15:40:53.083Z,0.5
2023-04-12T15:43:19.749Z,2.2
2023-04-12T15:45:46.492Z,0.4
2023-04-12T15:48:13.104Z,0.7
2023-04-12T15:50:39.824Z,0.7
2023-04-12T15:53:05.051Z,0.7
2023-04-12T15:57:58.432Z,0.8
2023-04-12T16:00:25.116Z,0.8
2023-04-12T16:02:51.802Z,0.8
2023-04-12T16:05:18.464Z,0.7
2023-04-12T16:07:45.143Z,0.6
2023-04-12T16:10:11.857Z,0.6
2023-04-12T16:12:38.513Z,0.8
2023-04-12T16:15:05.239Z,0.8
2023-04-12T16:17:31.887Z,0.8
2023-04-12T16:19:58.655Z,1.3
2023-04-12T16:22:25.264Z,1.4
2023-04-12T16:24:50.483Z,1
2023-04-12T16:27:17.285Z,1
2023-04-12T16:29:43.845Z,1
2023-04-12T16:32:10.599Z,0.8
2023-04-12T16:34:37.221Z,0.5
2023-04-12T16:37:03.897Z,0.5
2023-04-12T16:39:30.666Z,0.7
2023-04-12T16:41:57.270Z,0.6
2023-04-12T16:44:23.984Z,0.8
2023-04-12T16:46:50.638Z,1.5
2023-04-12T16:49:17.334Z,1.5
2023-04-12T16:51:44.128Z,1.8
2023-04-12T16:54:10.704Z,1.5
2023-04-12T16:56:37.555Z,1.2
2023-04-12T16:59:02.826Z,0.5
2023-04-12T17:01:29.356Z,0.6
2023-04-12T17:03:56.159Z,0.7
2023-04-12T17:06:22.786Z,1.2
2023-04-12T17:08:49.457Z,0.8
2023-04-12T17:11:16.010Z,1.1
2023-04-12T17:13:42.697Z,0.8
2023-04-12T17:16:09.409Z,1.6
2023-04-12T17:18:36.119Z,1.5
2023-04-12T17:21:02.864Z,1.6
2023-04-12T17:23:29.428Z,1.7
2023-04-12T17:25:56.249Z,1.4
2023-04-12T17:28:22.979Z,1
2023-04-12T17:30:48.014Z,1.1
2023-04-12T17:33:14.752Z,1.1
2023-04-12T17:35:41.384Z,0.7
2023-04-12T17:38:08.073Z,1.2
2023-04-12T17:40:34.754Z,1.1
2023-04-12T17:45:28.144Z,1.6
2023-04-12T17:47:54.813Z,1.9
2023-04-12T17:50:21.503Z,1.2
2023-04-12T17:52:48.177Z,1.4
2023-04-12T17:55:14.875Z,0.8
2023-04-12T17:57:41.564Z,0.8
2023-04-12T18:00:08.246Z,1.4
2023-04-12T18:02:33.481Z,1.2
2023-04-12T18:05:00.140Z,1.3
2023-04-12T18:07:26.844Z,1.1
2023-04-12T18:09:53.518Z,0.9
2023-04-12T18:12:20.213Z,1
2023-04-12T18:14:46.890Z,0.8
2023-04-12T18:17:13.577Z,1.1
2023-04-12T18:19:40.314Z,0.7
2023-04-12T18:22:06.948Z,1.1
2023-04-12T18:24:33.703Z,0.7
2023-04-12T18:27:00.345Z,0.8
2023-04-12T18:29:26.999Z,0.8
2023-04-12T18:31:53.684Z,0.8
2023-04-12T18:34:18.915Z,0.8
2023-04-12T18:36:45.577Z,0.8
2023-04-12T18:39:12.273Z,0.8
2023-04-12T18:41:39.040Z,0.7
2023-04-12T18:44:05.645Z,1.2
2023-04-12T18:46:32.330Z,0.8
2023-04-12T18:48:59.023Z,0.9
2023-04-12T18:51:25.738Z,0.7
2023-04-12T18:53:52.386Z,0.9
2023-04-12T18:56:19.120Z,1.2
2023-04-12T18:58:45.759Z,1
2023-04-12T19:01:12.445Z,0.9
2023-04-12T19:03:39.117Z,1
2023-04-12T19:08:31.032Z,0.7
2023-04-12T19:10:57.717Z,0.7
2023-04-12T19:13:24.404Z,1
2023-04-12T19:15:51.087Z,1
2023-04-12T19:18:17.769Z,0.7
2023-04-12T19:20:44.453Z,0.8
2023-04-12T19:23:11.135Z,0.8
2023-04-12T19:25:37.825Z,0.6
2023-04-12T19:28:04.515Z,0.8
2023-04-12T19:30:31.209Z,1.1
2023-04-12T19:32:57.878Z,1.2
2023-04-12T19:35:24.567Z,1.1
2023-04-12T19:37:51.238Z,1.1
2023-04-12T19:40:16.477Z,1.5
2023-04-12T19:42:43.156Z,1.7
2023-04-12T19:45:09.911Z,1.2
2023-04-12T19:47:36.516Z,1.6
2023-04-12T19:50:03.201Z,1.3
2023-04-12T19:52:29.917Z,1.2
2023-04-12T19:57:23.273Z,1
2023-04-12T19:59:50.071Z,1.2
2023-04-12T20:02:16.691Z,1.2
2023-04-12T20:04:43.321Z,1
2023-04-12T20:07:10.009Z,1
2023-04-12T20:12:03.386Z,1.2
2023-04-12T20:14:28.600Z,0.8
2023-04-12T20:16:55.287Z,1
2023-04-12T20:19:21.970Z,0.8
2023-04-12T20:21:48.647Z,0.8
2023-04-12T20:24:15.336Z,1
2023-04-12T20:26:42.046Z,1.1
2023-04-12T20:29:08.803Z,0.8
2023-04-12T20:31:35.383Z,0.8
2023-04-12T20:34:02.085Z,0.8
2023-04-12T20:36:28.767Z,1
2023-04-12T20:38:55.446Z,1
2023-04-12T20:41:22.131Z,0.8
2023-04-12T20:43:48.821Z,1.1
2023-04-12T20:46:15.101Z,0.8
2023-04-12T20:51:08.463Z,0.8
2023-04-12T20:53:35.163Z,0.8
2023-04-12T20:56:01.834Z,0.8
2023-04-12T20:58:28.518Z,1.2
2023-04-12T21:00:55.211Z,0.9
2023-04-12T21:03:21.902Z,1
2023-04-12T21:05:48.581Z,0.9
2023-04-12T21:08:15.258Z,0.8
2023-04-12T21:10:41.955Z,1.1
2023-04-12T21:13:08.623Z,0.6
2023-04-12T21:15:35.315Z,0.5
2023-04-12T21:18:00.541Z,0.8
2023-04-12T21:20:27.224Z,0.5
2023-04-12T21:22:53.908Z,0.3
2023-04-12T21:25:20.594Z,0.2
2023-04-12T21:27:47.273Z,0.2
2023-04-12T21:35:07.337Z,0.3
2023-04-12T21:37:34.049Z,0.3
2023-04-12T21:39:59.267Z,0.1
2023-04-12T21:44:52.636Z,0.2
2023-04-12T21:47:17.862Z,0.3
2023-04-12T21:49:44.546Z,0.3
2023-04-12T21:54:37.912Z,0.6
2023-04-12T21:57:04.598Z,0.8
2023-04-12T21:59:31.291Z,0.3
2023-04-12T22:01:57.982Z,0.4
2023-04-12T22:04:24.659Z,0.7
2023-04-12T22:06:51.339Z,0.5
2023-04-12T22:09:18.022Z,0.4
2023-04-12T22:11:44.712Z,0.3
2023-04-12T22:14:11.387Z,0.5
2023-04-12T22:16:38.085Z,0.7
2023-04-12T22:19:04.756Z,0.4
2023-04-12T22:21:31.466Z,0.5
2023-04-12T22:23:56.658Z,0.3
2023-04-12T22:26:23.363Z,0.8
2023-04-12T22:28:50.043Z,0.5
2023-04-12T22:33:43.412Z,0.4
2023-04-12T22:38:36.761Z,0.4
2023-04-12T22:41:02.028Z,0.4
2023-04-12T22:43:27.238Z,0.4
2023-04-12T22:45:53.914Z,0.3
2023-04-12T22:48:20.612Z,0.4
2023-04-12T22:50:47.314Z,0.4
2023-04-12T22:53:13.996Z,0.2
2023-04-12T22:55:40.657Z,0.4
2023-04-12T22:58:07.357Z,0.4
2023-04-12T23:00:34.045Z,0.5
2023-04-12T23:03:00.717Z,0.5
2023-04-12T23:05:27.403Z,0.6
2023-04-12T23:07:54.081Z,0.7
2023-04-12T23:10:20.778Z,0.7
2023-04-12T23:12:47.464Z,0.4
2023-04-12T23:15:14.138Z,0.4
2023-04-12T23:17:39.393Z,0.4
2023-04-12T23:20:06.089Z,0.6
2023-04-12T23:22:32.753Z,0.6
2023-04-12T23:24:59.449Z,0.6
2023-04-12T23:27:26.131Z,0.8
2023-04-12T23:29:52.817Z,0.6
2023-04-12T23:32:18.041Z,0.7
2023-04-12T23:34:44.738Z,1
2023-04-12T23:37:11.414Z,0.6
2023-04-12T23:39:38.111Z,0.6
2023-04-12T23:42:04.784Z,0.8
2023-04-12T23:44:31.485Z,0.4
2023-04-12T23:46:56.735Z,0.7
2023-04-12T23:49:23.410Z,0.4
2023-04-12T23:51:50.089Z,0.5
2023-04-12T23:54:15.306Z,0.7
2023-04-12T23:56:42.028Z,0.6
2023-04-12T23:59:08.678Z,0.8
